sensor_id;sensor_type;location;lat;lon;timestamp;P1;durP1;ratioP1;P2;durP2;ratioP2
56401;SDS011;42299;35.160;26.100;2023-04-24T00:00:38;17.67;;;12.10;;
56401;SDS011;42299;35.160;26.100;2023-04-24T00:02:01;16.63;;;11.10;;
56401;SDS011;42299;35.160;26.100;2023-04-24T00:03:24;20.40;;;10.50;;
56401;SDS011;42299;35.160;26.100;2023-04-24T00:04:49;18.30;;;10.82;;
56401;SDS011;42299;35.160;26.100;2023-04-24T00:06:12;16.27;;;10.88;;
56401;SDS011;42299;35.160;26.100;2023-04-24T00:07:34;15.60;;;9.73;;
56401;SDS011;42299;35.160;26.100;2023-04-24T00:08:57;12.88;;;9.35;;
56401;SDS011;42299;35.160;26.100;2023-04-24T00:10:19;15.05;;;9.05;;
56401;SDS011;42299;35.160;26.100;2023-04-24T00:11:40;14.85;;;9.98;;
56401;SDS011;42299;35.160;26.100;2023-04-24T00:13:03;17.52;;;10.30;;
56401;SDS011;42299;35.160;26.100;2023-04-24T00:14:25;15.60;;;9.95;;
56401;SDS011;42299;35.160;26.100;2023-04-24T00:15:47;17.60;;;10.20;;
56401;SDS011;42299;35.160;26.100;2023-04-24T00:17:09;14.13;;;9.98;;
56401;SDS011;42299;35.160;26.100;2023-04-24T00:18:32;14.45;;;9.85;;
56401;SDS011;42299;35.160;26.100;2023-04-24T00:19:56;15.23;;;10.05;;
56401;SDS011;42299;35.160;26.100;2023-04-24T00:21:19;16.35;;;10.70;;
56401;SDS011;42299;35.160;26.100;2023-04-24T00:22:41;19.45;;;10.02;;
56401;SDS011;42299;35.160;26.100;2023-04-24T00:24:04;20.77;;;11.02;;
56401;SDS011;42299;35.160;26.100;2023-04-24T00:25:27;16.88;;;11.23;;
56401;SDS011;42299;35.160;26.100;2023-04-24T00:26:49;19.25;;;11.38;;
56401;SDS011;42299;35.160;26.100;2023-04-24T00:28:10;17.45;;;11.63;;
56401;SDS011;42299;35.160;26.100;2023-04-24T00:29:32;16.17;;;11.75;;
56401;SDS011;42299;35.160;26.100;2023-04-24T00:30:55;24.95;;;12.27;;
56401;SDS011;42299;35.160;26.100;2023-04-24T00:32:17;18.70;;;11.82;;
56401;SDS011;42299;35.160;26.100;2023-04-24T00:33:39;17.50;;;11.20;;
56401;SDS011;42299;35.160;26.100;2023-04-24T00:35:04;15.82;;;10.40;;
56401;SDS011;42299;35.160;26.100;2023-04-24T00:36:27;18.10;;;10.35;;
56401;SDS011;42299;35.160;26.100;2023-04-24T00:37:51;19.35;;;10.80;;
56401;SDS011;42299;35.160;26.100;2023-04-24T00:39:12;18.48;;;10.93;;
56401;SDS011;42299;35.160;26.100;2023-04-24T00:40:34;16.67;;;10.93;;
56401;SDS011;42299;35.160;26.100;2023-04-24T00:41:56;15.05;;;10.57;;
56401;SDS011;42299;35.160;26.100;2023-04-24T00:43:19;16.48;;;10.73;;
56401;SDS011;42299;35.160;26.100;2023-04-24T00:44:41;19.75;;;10.55;;
56401;SDS011;42299;35.160;26.100;2023-04-24T00:46:04;22.55;;;11.52;;
56401;SDS011;42299;35.160;26.100;2023-04-24T00:47:26;17.85;;;10.80;;
56401;SDS011;42299;35.160;26.100;2023-04-24T00:48:49;17.10;;;11.48;;
56401;SDS011;42299;35.160;26.100;2023-04-24T00:50:14;21.23;;;12.52;;
56401;SDS011;42299;35.160;26.100;2023-04-24T00:51:37;20.65;;;12.25;;
56401;SDS011;42299;35.160;26.100;2023-04-24T00:52:58;18.70;;;12.18;;
56401;SDS011;42299;35.160;26.100;2023-04-24T00:54:21;20.33;;;11.90;;
56401;SDS011;42299;35.160;26.100;2023-04-24T00:55:42;19.85;;;10.57;;
56401;SDS011;42299;35.160;26.100;2023-04-24T00:57:05;17.17;;;10.90;;
56401;SDS011;42299;35.160;26.100;2023-04-24T00:58:27;18.20;;;11.88;;
56401;SDS011;42299;35.160;26.100;2023-04-24T00:59:50;18.88;;;12.23;;
56401;SDS011;42299;35.160;26.100;2023-04-24T01:01:13;18.40;;;12.07;;
56401;SDS011;42299;35.160;26.100;2023-04-24T01:02:35;19.17;;;11.55;;
56401;SDS011;42299;35.160;26.100;2023-04-24T01:04:00;23.70;;;12.68;;
56401;SDS011;42299;35.160;26.100;2023-04-24T01:05:24;23.48;;;12.43;;
56401;SDS011;42299;35.160;26.100;2023-04-24T01:06:47;16.10;;;11.48;;
56401;SDS011;42299;35.160;26.100;2023-04-24T01:08:11;19.00;;;11.75;;
56401;SDS011;42299;35.160;26.100;2023-04-24T01:09:35;17.83;;;11.43;;
56401;SDS011;42299;35.160;26.100;2023-04-24T01:12:19;16.38;;;10.95;;
56401;SDS011;42299;35.160;26.100;2023-04-24T01:13:40;20.23;;;12.48;;
56401;SDS011;42299;35.160;26.100;2023-04-24T01:15:04;20.17;;;12.15;;
56401;SDS011;42299;35.160;26.100;2023-04-24T01:16:29;19.83;;;12.18;;
56401;SDS011;42299;35.160;26.100;2023-04-24T01:17:50;19.17;;;11.85;;
56401;SDS011;42299;35.160;26.100;2023-04-24T01:19:14;19.70;;;11.63;;
56401;SDS011;42299;35.160;26.100;2023-04-24T01:20:40;19.02;;;12.38;;
56401;SDS011;42299;35.160;26.100;2023-04-24T01:22:10;15.95;;;11.52;;
56401;SDS011;42299;35.160;26.100;2023-04-24T01:23:32;18.15;;;11.48;;
56401;SDS011;42299;35.160;26.100;2023-04-24T01:24:55;20.67;;;11.68;;
56401;SDS011;42299;35.160;26.100;2023-04-24T01:26:18;19.55;;;11.68;;
56401;SDS011;42299;35.160;26.100;2023-04-24T01:27:40;20.35;;;11.98;;
56401;SDS011;42299;35.160;26.100;2023-04-24T01:29:03;18.92;;;12.63;;
56401;SDS011;42299;35.160;26.100;2023-04-24T01:30:24;20.48;;;11.95;;
56401;SDS011;42299;35.160;26.100;2023-04-24T01:31:47;21.65;;;13.20;;
56401;SDS011;42299;35.160;26.100;2023-04-24T01:33:09;19.02;;;13.00;;
56401;SDS011;42299;35.160;26.100;2023-04-24T01:34:32;18.95;;;13.20;;
56401;SDS011;42299;35.160;26.100;2023-04-24T01:35:55;19.92;;;13.57;;
56401;SDS011;42299;35.160;26.100;2023-04-24T01:38:40;20.25;;;13.20;;
56401;SDS011;42299;35.160;26.100;2023-04-24T01:40:03;23.23;;;13.07;;
56401;SDS011;42299;35.160;26.100;2023-04-24T01:41:25;18.80;;;12.55;;
56401;SDS011;42299;35.160;26.100;2023-04-24T01:42:47;20.17;;;13.05;;
56401;SDS011;42299;35.160;26.100;2023-04-24T01:44:10;17.63;;;11.48;;
56401;SDS011;42299;35.160;26.100;2023-04-24T01:45:32;24.65;;;12.23;;
56401;SDS011;42299;35.160;26.100;2023-04-24T01:46:54;17.52;;;12.38;;
56401;SDS011;42299;35.160;26.100;2023-04-24T01:48:18;23.15;;;13.32;;
56401;SDS011;42299;35.160;26.100;2023-04-24T01:49:40;18.40;;;12.75;;
56401;SDS011;42299;35.160;26.100;2023-04-24T01:51:06;21.05;;;12.70;;
56401;SDS011;42299;35.160;26.100;2023-04-24T01:52:32;20.52;;;12.82;;
56401;SDS011;42299;35.160;26.100;2023-04-24T01:53:56;18.42;;;11.95;;
56401;SDS011;42299;35.160;26.100;2023-04-24T01:55:17;19.40;;;12.43;;
56401;SDS011;42299;35.160;26.100;2023-04-24T01:56:41;19.27;;;12.68;;
56401;SDS011;42299;35.160;26.100;2023-04-24T01:58:03;19.85;;;12.90;;
56401;SDS011;42299;35.160;26.100;2023-04-24T01:59:25;18.88;;;12.98;;
56401;SDS011;42299;35.160;26.100;2023-04-24T02:00:49;17.77;;;12.50;;
56401;SDS011;42299;35.160;26.100;2023-04-24T02:02:12;15.20;;;11.57;;
56401;SDS011;42299;35.160;26.100;2023-04-24T02:03:33;17.63;;;12.85;;
56401;SDS011;42299;35.160;26.100;2023-04-24T02:04:55;18.45;;;11.90;;
56401;SDS011;42299;35.160;26.100;2023-04-24T02:06:16;18.13;;;11.45;;
56401;SDS011;42299;35.160;26.100;2023-04-24T02:07:40;15.30;;;11.48;;
56401;SDS011;42299;35.160;26.100;2023-04-24T02:09:03;16.83;;;11.35;;
56401;SDS011;42299;35.160;26.100;2023-04-24T02:10:24;18.55;;;11.48;;
56401;SDS011;42299;35.160;26.100;2023-04-24T02:11:47;18.98;;;11.25;;
56401;SDS011;42299;35.160;26.100;2023-04-24T02:13:09;19.00;;;11.52;;
56401;SDS011;42299;35.160;26.100;2023-04-24T02:14:30;18.27;;;11.77;;
56401;SDS011;42299;35.160;26.100;2023-04-24T02:15:53;16.92;;;10.68;;
56401;SDS011;42299;35.160;26.100;2023-04-24T02:17:17;16.35;;;10.07;;
56401;SDS011;42299;35.160;26.100;2023-04-24T02:18:40;18.58;;;11.73;;
56401;SDS011;42299;35.160;26.100;2023-04-24T02:20:01;18.88;;;12.75;;
56401;SDS011;42299;35.160;26.100;2023-04-24T02:21:25;23.58;;;11.38;;
56401;SDS011;42299;35.160;26.100;2023-04-24T02:22:49;18.90;;;11.57;;
56401;SDS011;42299;35.160;26.100;2023-04-24T02:24:18;16.60;;;11.00;;
56401;SDS011;42299;35.160;26.100;2023-04-24T02:25:40;15.85;;;11.20;;
56401;SDS011;42299;35.160;26.100;2023-04-24T02:27:01;13.98;;;10.43;;
56401;SDS011;42299;35.160;26.100;2023-04-24T02:28:25;17.85;;;11.45;;
56401;SDS011;42299;35.160;26.100;2023-04-24T02:29:46;14.43;;;11.13;;
56401;SDS011;42299;35.160;26.100;2023-04-24T02:31:08;18.27;;;11.88;;
56401;SDS011;42299;35.160;26.100;2023-04-24T02:32:30;17.05;;;11.35;;
56401;SDS011;42299;35.160;26.100;2023-04-24T02:33:52;17.25;;;10.90;;
56401;SDS011;42299;35.160;26.100;2023-04-24T02:35:13;18.75;;;11.07;;
56401;SDS011;42299;35.160;26.100;2023-04-24T02:36:36;16.92;;;11.73;;
56401;SDS011;42299;35.160;26.100;2023-04-24T02:38:00;21.67;;;12.52;;
56401;SDS011;42299;35.160;26.100;2023-04-24T02:39:23;18.55;;;12.68;;
56401;SDS011;42299;35.160;26.100;2023-04-24T02:40:46;17.75;;;12.80;;
56401;SDS011;42299;35.160;26.100;2023-04-24T02:42:09;15.27;;;11.38;;
56401;SDS011;42299;35.160;26.100;2023-04-24T02:43:30;19.13;;;11.07;;
56401;SDS011;42299;35.160;26.100;2023-04-24T02:44:52;18.38;;;11.10;;
56401;SDS011;42299;35.160;26.100;2023-04-24T02:46:14;18.65;;;11.40;;
56401;SDS011;42299;35.160;26.100;2023-04-24T02:47:36;16.05;;;10.70;;
56401;SDS011;42299;35.160;26.100;2023-04-24T02:48:59;17.63;;;11.90;;
56401;SDS011;42299;35.160;26.100;2023-04-24T02:50:20;14.55;;;10.70;;
56401;SDS011;42299;35.160;26.100;2023-04-24T02:51:43;16.35;;;10.20;;
56401;SDS011;42299;35.160;26.100;2023-04-24T02:53:07;16.08;;;10.27;;
56401;SDS011;42299;35.160;26.100;2023-04-24T02:54:28;18.02;;;10.82;;
56401;SDS011;42299;35.160;26.100;2023-04-24T02:55:50;15.55;;;9.90;;
56401;SDS011;42299;35.160;26.100;2023-04-24T02:57:13;21.05;;;11.30;;
56401;SDS011;42299;35.160;26.100;2023-04-24T02:58:36;17.50;;;11.45;;
56401;SDS011;42299;35.160;26.100;2023-04-24T02:59:58;19.05;;;10.75;;
56401;SDS011;42299;35.160;26.100;2023-04-24T03:01:21;14.48;;;10.20;;
56401;SDS011;42299;35.160;26.100;2023-04-24T03:02:42;17.30;;;10.70;;
56401;SDS011;42299;35.160;26.100;2023-04-24T03:04:05;17.80;;;10.23;;
56401;SDS011;42299;35.160;26.100;2023-04-24T03:05:27;18.98;;;10.30;;
56401;SDS011;42299;35.160;26.100;2023-04-24T03:06:48;14.40;;;10.77;;
56401;SDS011;42299;35.160;26.100;2023-04-24T03:08:15;18.20;;;9.70;;
56401;SDS011;42299;35.160;26.100;2023-04-24T03:09:38;17.33;;;11.00;;
56401;SDS011;42299;35.160;26.100;2023-04-24T03:10:59;14.65;;;10.52;;
56401;SDS011;42299;35.160;26.100;2023-04-24T03:12:21;16.90;;;10.23;;
56401;SDS011;42299;35.160;26.100;2023-04-24T03:13:44;14.05;;;9.27;;
56401;SDS011;42299;35.160;26.100;2023-04-24T03:15:07;15.45;;;9.60;;
56401;SDS011;42299;35.160;26.100;2023-04-24T03:16:31;18.67;;;11.02;;
56401;SDS011;42299;35.160;26.100;2023-04-24T03:17:53;16.92;;;10.02;;
56401;SDS011;42299;35.160;26.100;2023-04-24T03:19:16;15.48;;;10.23;;
56401;SDS011;42299;35.160;26.100;2023-04-24T03:20:49;19.50;;;10.95;;
56401;SDS011;42299;35.160;26.100;2023-04-24T03:22:11;17.88;;;9.73;;
56401;SDS011;42299;35.160;26.100;2023-04-24T03:23:36;17.75;;;10.23;;
56401;SDS011;42299;35.160;26.100;2023-04-24T03:24:58;17.98;;;10.02;;
56401;SDS011;42299;35.160;26.100;2023-04-24T03:26:20;16.75;;;10.20;;
56401;SDS011;42299;35.160;26.100;2023-04-24T03:28:05;16.63;;;10.23;;
56401;SDS011;42299;35.160;26.100;2023-04-24T03:29:47;18.27;;;10.73;;
56401;SDS011;42299;35.160;26.100;2023-04-24T03:31:09;15.95;;;10.68;;
56401;SDS011;42299;35.160;26.100;2023-04-24T03:32:32;14.52;;;10.55;;
56401;SDS011;42299;35.160;26.100;2023-04-24T03:33:55;15.77;;;11.10;;
56401;SDS011;42299;35.160;26.100;2023-04-24T03:35:21;17.42;;;11.40;;
56401;SDS011;42299;35.160;26.100;2023-04-24T03:36:42;16.80;;;11.75;;
56401;SDS011;42299;35.160;26.100;2023-04-24T03:38:08;16.23;;;11.05;;
56401;SDS011;42299;35.160;26.100;2023-04-24T03:39:51;16.45;;;10.60;;
56401;SDS011;42299;35.160;26.100;2023-04-24T03:41:17;18.33;;;11.80;;
56401;SDS011;42299;35.160;26.100;2023-04-24T03:42:44;17.23;;;11.52;;
56401;SDS011;42299;35.160;26.100;2023-04-24T03:44:05;14.80;;;10.73;;
56401;SDS011;42299;35.160;26.100;2023-04-24T03:45:28;14.75;;;10.02;;
56401;SDS011;42299;35.160;26.100;2023-04-24T03:46:51;19.20;;;9.68;;
56401;SDS011;42299;35.160;26.100;2023-04-24T03:48:15;14.60;;;9.10;;
56401;SDS011;42299;35.160;26.100;2023-04-24T03:49:38;17.88;;;12.15;;
56401;SDS011;42299;35.160;26.100;2023-04-24T03:50:59;16.80;;;13.85;;
56401;SDS011;42299;35.160;26.100;2023-04-24T03:52:22;18.30;;;13.70;;
56401;SDS011;42299;35.160;26.100;2023-04-24T03:55:11;12.98;;;10.13;;
56401;SDS011;42299;35.160;26.100;2023-04-24T03:56:39;15.48;;;10.30;;
56401;SDS011;42299;35.160;26.100;2023-04-24T03:58:00;13.90;;;9.63;;
56401;SDS011;42299;35.160;26.100;2023-04-24T03:59:23;14.20;;;7.72;;
56401;SDS011;42299;35.160;26.100;2023-04-24T04:00:59;11.50;;;7.43;;
56401;SDS011;42299;35.160;26.100;2023-04-24T04:02:41;11.90;;;7.43;;
56401;SDS011;42299;35.160;26.100;2023-04-24T04:04:04;12.27;;;7.50;;
56401;SDS011;42299;35.160;26.100;2023-04-24T04:05:25;11.30;;;6.55;;
56401;SDS011;42299;35.160;26.100;2023-04-24T04:06:48;9.88;;;6.63;;
56401;SDS011;42299;35.160;26.100;2023-04-24T04:08:09;10.65;;;6.50;;
56401;SDS011;42299;35.160;26.100;2023-04-24T04:09:32;10.70;;;6.60;;
56401;SDS011;42299;35.160;26.100;2023-04-24T04:10:56;13.40;;;6.28;;
56401;SDS011;42299;35.160;26.100;2023-04-24T04:12:18;12.65;;;6.22;;
56401;SDS011;42299;35.160;26.100;2023-04-24T04:13:39;10.82;;;5.68;;
56401;SDS011;42299;35.160;26.100;2023-04-24T04:15:02;11.98;;;6.45;;
56401;SDS011;42299;35.160;26.100;2023-04-24T04:16:26;9.95;;;5.80;;
56401;SDS011;42299;35.160;26.100;2023-04-24T04:17:54;11.85;;;6.00;;
56401;SDS011;42299;35.160;26.100;2023-04-24T04:19:17;12.88;;;6.07;;
56401;SDS011;42299;35.160;26.100;2023-04-24T04:20:39;10.13;;;5.20;;
56401;SDS011;42299;35.160;26.100;2023-04-24T04:22:02;8.20;;;5.47;;
56401;SDS011;42299;35.160;26.100;2023-04-24T04:23:33;10.55;;;5.88;;
56401;SDS011;42299;35.160;26.100;2023-04-24T04:25:02;7.85;;;5.38;;
56401;SDS011;42299;35.160;26.100;2023-04-24T04:26:27;10.10;;;5.28;;
56401;SDS011;42299;35.160;26.100;2023-04-24T04:28:03;9.45;;;5.65;;
56401;SDS011;42299;35.160;26.100;2023-04-24T04:29:26;9.82;;;5.43;;
56401;SDS011;42299;35.160;26.100;2023-04-24T04:30:49;10.73;;;5.68;;
56401;SDS011;42299;35.160;26.100;2023-04-24T04:32:14;10.93;;;5.38;;
56401;SDS011;42299;35.160;26.100;2023-04-24T04:33:37;11.68;;;5.20;;
56401;SDS011;42299;35.160;26.100;2023-04-24T04:35:01;8.15;;;5.18;;
56401;SDS011;42299;35.160;26.100;2023-04-24T04:36:26;9.02;;;5.13;;
56401;SDS011;42299;35.160;26.100;2023-04-24T04:37:56;10.43;;;5.30;;
56401;SDS011;42299;35.160;26.100;2023-04-24T04:39:45;6.50;;;4.28;;
56401;SDS011;42299;35.160;26.100;2023-04-24T04:41:14;9.18;;;5.20;;
56401;SDS011;42299;35.160;26.100;2023-04-24T04:42:40;11.68;;;5.10;;
56401;SDS011;42299;35.160;26.100;2023-04-24T04:44:01;8.40;;;4.68;;
56401;SDS011;42299;35.160;26.100;2023-04-24T04:45:26;8.88;;;5.40;;
56401;SDS011;42299;35.160;26.100;2023-04-24T04:47:08;9.55;;;6.63;;
56401;SDS011;42299;35.160;26.100;2023-04-24T04:48:31;10.80;;;5.93;;
56401;SDS011;42299;35.160;26.100;2023-04-24T04:49:55;7.75;;;5.55;;
56401;SDS011;42299;35.160;26.100;2023-04-24T04:51:20;12.52;;;6.30;;
56401;SDS011;42299;35.160;26.100;2023-04-24T04:52:42;9.45;;;6.05;;
56401;SDS011;42299;35.160;26.100;2023-04-24T04:54:14;11.60;;;5.43;;
56401;SDS011;42299;35.160;26.100;2023-04-24T04:55:36;14.55;;;5.35;;
56401;SDS011;42299;35.160;26.100;2023-04-24T04:57:05;7.80;;;4.75;;
56401;SDS011;42299;35.160;26.100;2023-04-24T04:58:31;8.15;;;4.70;;
56401;SDS011;42299;35.160;26.100;2023-04-24T04:59:54;9.52;;;5.07;;
56401;SDS011;42299;35.160;26.100;2023-04-24T05:01:30;11.88;;;4.65;;
56401;SDS011;42299;35.160;26.100;2023-04-24T05:02:53;12.15;;;4.45;;
56401;SDS011;42299;35.160;26.100;2023-04-24T05:04:14;7.25;;;3.83;;
56401;SDS011;42299;35.160;26.100;2023-04-24T05:05:37;10.30;;;4.35;;
56401;SDS011;42299;35.160;26.100;2023-04-24T05:07:04;8.20;;;5.00;;
56401;SDS011;42299;35.160;26.100;2023-04-24T05:08:30;9.57;;;4.22;;
56401;SDS011;42299;35.160;26.100;2023-04-24T05:09:51;9.90;;;4.13;;
56401;SDS011;42299;35.160;26.100;2023-04-24T05:11:13;9.35;;;4.90;;
56401;SDS011;42299;35.160;26.100;2023-04-24T05:12:36;12.52;;;4.88;;
56401;SDS011;42299;35.160;26.100;2023-04-24T05:14:02;11.18;;;4.43;;
56401;SDS011;42299;35.160;26.100;2023-04-24T05:15:32;10.60;;;4.30;;
56401;SDS011;42299;35.160;26.100;2023-04-24T05:16:55;11.48;;;4.53;;
56401;SDS011;42299;35.160;26.100;2023-04-24T05:18:19;10.30;;;4.40;;
56401;SDS011;42299;35.160;26.100;2023-04-24T05:19:42;9.25;;;4.38;;
56401;SDS011;42299;35.160;26.100;2023-04-24T05:21:05;9.23;;;4.20;;
56401;SDS011;42299;35.160;26.100;2023-04-24T05:22:29;11.07;;;4.60;;
56401;SDS011;42299;35.160;26.100;2023-04-24T05:23:51;10.23;;;4.18;;
56401;SDS011;42299;35.160;26.100;2023-04-24T05:25:26;12.13;;;4.10;;
56401;SDS011;42299;35.160;26.100;2023-04-24T05:26:52;10.25;;;3.92;;
56401;SDS011;42299;35.160;26.100;2023-04-24T05:28:20;9.35;;;3.40;;
56401;SDS011;42299;35.160;26.100;2023-04-24T05:29:56;11.07;;;3.67;;
56401;SDS011;42299;35.160;26.100;2023-04-24T05:31:19;8.88;;;3.75;;
56401;SDS011;42299;35.160;26.100;2023-04-24T05:32:40;10.02;;;3.30;;
56401;SDS011;42299;35.160;26.100;2023-04-24T05:34:03;10.88;;;3.40;;
56401;SDS011;42299;35.160;26.100;2023-04-24T05:35:27;11.15;;;3.40;;
56401;SDS011;42299;35.160;26.100;2023-04-24T05:36:50;8.35;;;3.47;;
56401;SDS011;42299;35.160;26.100;2023-04-24T05:38:13;14.43;;;3.53;;
56401;SDS011;42299;35.160;26.100;2023-04-24T05:39:38;12.27;;;3.50;;
56401;SDS011;42299;35.160;26.100;2023-04-24T05:41:01;9.85;;;3.25;;
56401;SDS011;42299;35.160;26.100;2023-04-24T05:42:24;11.35;;;2.97;;
56401;SDS011;42299;35.160;26.100;2023-04-24T05:43:46;11.23;;;2.92;;
56401;SDS011;42299;35.160;26.100;2023-04-24T05:45:09;13.55;;;3.45;;
56401;SDS011;42299;35.160;26.100;2023-04-24T05:46:36;8.23;;;2.83;;
56401;SDS011;42299;35.160;26.100;2023-04-24T05:47:59;14.27;;;3.40;;
56401;SDS011;42299;35.160;26.100;2023-04-24T05:49:21;8.48;;;3.45;;
56401;SDS011;42299;35.160;26.100;2023-04-24T05:50:44;8.65;;;3.22;;
56401;SDS011;42299;35.160;26.100;2023-04-24T05:52:08;12.45;;;3.20;;
56401;SDS011;42299;35.160;26.100;2023-04-24T05:53:33;15.18;;;3.40;;
56401;SDS011;42299;35.160;26.100;2023-04-24T05:54:56;10.65;;;3.28;;
56401;SDS011;42299;35.160;26.100;2023-04-24T05:56:21;11.40;;;2.88;;
56401;SDS011;42299;35.160;26.100;2023-04-24T05:57:45;10.38;;;2.88;;
56401;SDS011;42299;35.160;26.100;2023-04-24T05:59:09;8.75;;;3.50;;
56401;SDS011;42299;35.160;26.100;2023-04-24T06:00:34;12.90;;;3.85;;
56401;SDS011;42299;35.160;26.100;2023-04-24T06:02:01;13.32;;;3.40;;
56401;SDS011;42299;35.160;26.100;2023-04-24T06:03:23;9.75;;;3.90;;
56401;SDS011;42299;35.160;26.100;2023-04-24T06:04:46;9.75;;;3.70;;
56401;SDS011;42299;35.160;26.100;2023-04-24T06:06:08;12.48;;;3.78;;
56401;SDS011;42299;35.160;26.100;2023-04-24T06:07:31;17.10;;;3.50;;
56401;SDS011;42299;35.160;26.100;2023-04-24T06:08:56;8.07;;;3.40;;
56401;SDS011;42299;35.160;26.100;2023-04-24T06:10:20;12.52;;;3.85;;
56401;SDS011;42299;35.160;26.100;2023-04-24T06:11:43;14.20;;;3.40;;
56401;SDS011;42299;35.160;26.100;2023-04-24T06:13:08;11.30;;;2.97;;
56401;SDS011;42299;35.160;26.100;2023-04-24T06:14:33;9.27;;;3.50;;
56401;SDS011;42299;35.160;26.100;2023-04-24T06:16:13;9.00;;;2.90;;
56401;SDS011;42299;35.160;26.100;2023-04-24T06:17:40;10.98;;;3.15;;
56401;SDS011;42299;35.160;26.100;2023-04-24T06:19:03;8.40;;;3.10;;
56401;SDS011;42299;35.160;26.100;2023-04-24T06:20:25;6.03;;;2.83;;
56401;SDS011;42299;35.160;26.100;2023-04-24T06:21:47;10.30;;;3.13;;
56401;SDS011;42299;35.160;26.100;2023-04-24T06:23:09;8.40;;;2.72;;
56401;SDS011;42299;35.160;26.100;2023-04-24T06:24:32;5.93;;;2.60;;
56401;SDS011;42299;35.160;26.100;2023-04-24T06:25:55;5.90;;;2.58;;
56401;SDS011;42299;35.160;26.100;2023-04-24T06:27:18;8.43;;;2.97;;
56401;SDS011;42299;35.160;26.100;2023-04-24T06:28:40;9.27;;;2.70;;
56401;SDS011;42299;35.160;26.100;2023-04-24T06:30:03;7.43;;;2.83;;
56401;SDS011;42299;35.160;26.100;2023-04-24T06:31:29;12.35;;;3.80;;
56401;SDS011;42299;35.160;26.100;2023-04-24T06:32:55;8.55;;;3.10;;
56401;SDS011;42299;35.160;26.100;2023-04-24T06:34:18;13.70;;;3.60;;
56401;SDS011;42299;35.160;26.100;2023-04-24T06:35:40;9.55;;;2.55;;
56401;SDS011;42299;35.160;26.100;2023-04-24T06:37:03;8.27;;;2.78;;
56401;SDS011;42299;35.160;26.100;2023-04-24T06:38:25;9.10;;;2.45;;
56401;SDS011;42299;35.160;26.100;2023-04-24T06:39:49;11.00;;;3.05;;
56401;SDS011;42299;35.160;26.100;2023-04-24T06:41:12;8.45;;;2.67;;
56401;SDS011;42299;35.160;26.100;2023-04-24T06:42:35;10.20;;;2.70;;
56401;SDS011;42299;35.160;26.100;2023-04-24T06:43:58;9.98;;;2.63;;
56401;SDS011;42299;35.160;26.100;2023-04-24T06:45:20;9.45;;;3.35;;
56401;SDS011;42299;35.160;26.100;2023-04-24T06:46:44;9.52;;;2.90;;
56401;SDS011;42299;35.160;26.100;2023-04-24T06:48:06;7.63;;;2.35;;
56401;SDS011;42299;35.160;26.100;2023-04-24T06:49:29;7.28;;;3.25;;
56401;SDS011;42299;35.160;26.100;2023-04-24T06:50:51;6.35;;;2.28;;
56401;SDS011;42299;35.160;26.100;2023-04-24T06:52:14;7.18;;;2.42;;
56401;SDS011;42299;35.160;26.100;2023-04-24T06:53:36;8.07;;;2.47;;
56401;SDS011;42299;35.160;26.100;2023-04-24T06:55:02;11.50;;;2.97;;
56401;SDS011;42299;35.160;26.100;2023-04-24T06:56:25;6.63;;;2.67;;
56401;SDS011;42299;35.160;26.100;2023-04-24T06:57:49;11.15;;;3.42;;
56401;SDS011;42299;35.160;26.100;2023-04-24T06:59:11;9.05;;;3.03;;
56401;SDS011;42299;35.160;26.100;2023-04-24T07:00:33;8.38;;;2.67;;
56401;SDS011;42299;35.160;26.100;2023-04-24T07:01:57;9.25;;;2.25;;
56401;SDS011;42299;35.160;26.100;2023-04-24T07:03:22;7.28;;;2.22;;
56401;SDS011;42299;35.160;26.100;2023-04-24T07:04:46;7.07;;;2.38;;
56401;SDS011;42299;35.160;26.100;2023-04-24T07:06:09;7.93;;;2.28;;
56401;SDS011;42299;35.160;26.100;2023-04-24T07:07:32;5.95;;;2.38;;
56401;SDS011;42299;35.160;26.100;2023-04-24T07:08:58;7.43;;;2.40;;
56401;SDS011;42299;35.160;26.100;2023-04-24T07:10:22;8.20;;;2.35;;
56401;SDS011;42299;35.160;26.100;2023-04-24T07:11:44;6.63;;;2.28;;
56401;SDS011;42299;35.160;26.100;2023-04-24T07:13:07;6.13;;;2.28;;
56401;SDS011;42299;35.160;26.100;2023-04-24T07:14:30;4.82;;;2.25;;
56401;SDS011;42299;35.160;26.100;2023-04-24T07:15:53;4.75;;;2.50;;
56401;SDS011;42299;35.160;26.100;2023-04-24T07:17:18;9.70;;;2.20;;
56401;SDS011;42299;35.160;26.100;2023-04-24T07:18:40;6.03;;;2.28;;
56401;SDS011;42299;35.160;26.100;2023-04-24T07:20:03;6.32;;;2.03;;
56401;SDS011;42299;35.160;26.100;2023-04-24T07:21:28;10.68;;;2.42;;
56401;SDS011;42299;35.160;26.100;2023-04-24T07:22:52;7.50;;;2.33;;
56401;SDS011;42299;35.160;26.100;2023-04-24T07:24:15;8.13;;;2.28;;
56401;SDS011;42299;35.160;26.100;2023-04-24T07:25:37;7.20;;;2.90;;
56401;SDS011;42299;35.160;26.100;2023-04-24T07:27:00;7.07;;;2.15;;
56401;SDS011;42299;35.160;26.100;2023-04-24T07:28:21;8.15;;;2.35;;
56401;SDS011;42299;35.160;26.100;2023-04-24T07:29:45;9.70;;;2.58;;
56401;SDS011;42299;35.160;26.100;2023-04-24T07:31:07;7.75;;;2.78;;
56401;SDS011;42299;35.160;26.100;2023-04-24T07:32:32;10.85;;;2.70;;
56401;SDS011;42299;35.160;26.100;2023-04-24T07:33:55;8.18;;;2.70;;
56401;SDS011;42299;35.160;26.100;2023-04-24T07:35:18;9.23;;;2.60;;
56401;SDS011;42299;35.160;26.100;2023-04-24T07:36:41;9.02;;;2.28;;
56401;SDS011;42299;35.160;26.100;2023-04-24T07:38:04;5.35;;;2.22;;
56401;SDS011;42299;35.160;26.100;2023-04-24T07:39:26;8.95;;;2.20;;
56401;SDS011;42299;35.160;26.100;2023-04-24T07:40:50;10.82;;;2.30;;
56401;SDS011;42299;35.160;26.100;2023-04-24T07:42:13;6.78;;;2.40;;
56401;SDS011;42299;35.160;26.100;2023-04-24T07:43:36;10.27;;;2.72;;
56401;SDS011;42299;35.160;26.100;2023-04-24T07:44:58;6.25;;;2.45;;
56401;SDS011;42299;35.160;26.100;2023-04-24T07:46:21;13.02;;;2.20;;
56401;SDS011;42299;35.160;26.100;2023-04-24T07:47:46;8.50;;;2.53;;
56401;SDS011;42299;35.160;26.100;2023-04-24T07:49:07;7.15;;;1.98;;
56401;SDS011;42299;35.160;26.100;2023-04-24T07:50:30;11.65;;;2.47;;
56401;SDS011;42299;35.160;26.100;2023-04-24T07:51:53;6.57;;;2.03;;
56401;SDS011;42299;35.160;26.100;2023-04-24T07:53:15;7.50;;;2.63;;
56401;SDS011;42299;35.160;26.100;2023-04-24T07:54:38;9.45;;;2.22;;
56401;SDS011;42299;35.160;26.100;2023-04-24T07:56:00;9.82;;;2.65;;
56401;SDS011;42299;35.160;26.100;2023-04-24T07:57:23;6.72;;;1.88;;
56401;SDS011;42299;35.160;26.100;2023-04-24T07:58:46;5.03;;;2.13;;
56401;SDS011;42299;35.160;26.100;2023-04-24T08:00:08;6.10;;;2.20;;
56401;SDS011;42299;35.160;26.100;2023-04-24T08:01:34;10.95;;;2.42;;
56401;SDS011;42299;35.160;26.100;2023-04-24T08:02:57;10.88;;;2.80;;
56401;SDS011;42299;35.160;26.100;2023-04-24T08:04:20;4.30;;;2.13;;
56401;SDS011;42299;35.160;26.100;2023-04-24T08:05:42;9.05;;;2.45;;
56401;SDS011;42299;35.160;26.100;2023-04-24T08:07:04;6.72;;;2.25;;
56401;SDS011;42299;35.160;26.100;2023-04-24T08:08:26;6.28;;;1.90;;
56401;SDS011;42299;35.160;26.100;2023-04-24T08:09:49;6.25;;;2.13;;
56401;SDS011;42299;35.160;26.100;2023-04-24T08:11:12;7.88;;;2.20;;
56401;SDS011;42299;35.160;26.100;2023-04-24T08:12:34;5.88;;;2.55;;
56401;SDS011;42299;35.160;26.100;2023-04-24T08:13:56;6.78;;;2.30;;